Time;durP1;ratioP1;P1;durP2;ratioP2;P2;SDS_P1;SDS_P2;PMS_P1;PMS_P2;Temp;Humidity;BMP_temperature;BMP_pressure;BME280_temperature;BME280_humidity;BME280_pressure;Samples;Min_cycle;Max_cycle;Signal;HPM_P1;HPM_P2
2022/05/03 00:01:45;;;;;;;10.25;6.72;;;;;;;19.90;42.81;102118.91;5049104;28;19928;-54
2022/05/03 00:04:31;;;;;;;9.23;6.53;;;;;;;19.90;42.77;102112.63;5085548;28;20145;-56
2022/05/03 00:07:35;;;;;;;11.80;6.68;;;;;;;19.88;43.77;102111.94;5089400;28;20040;-55
2022/05/03 00:10:21;;;;;;;10.77;6.82;;;;;;;19.86;43.38;102109.38;5087870;28;20044;-55
2022/05/03 00:12:56;;;;;;;11.40;6.82;;;;;;;19.86;43.35;102111.19;5089630;28;20120;-55
2022/05/03 00:15:25;;;;;;;9.45;6.18;;;;;;;19.85;43.74;102109.50;5086786;28;20074;-56
2022/05/03 00:17:53;;;;;;;11.98;6.95;;;;;;;19.82;43.49;102110.66;5090098;28;20443;-55
2022/05/03 00:20:21;;;;;;;10.32;6.97;;;;;;;19.82;43.89;102115.16;5089169;28;20040;-55
2022/05/03 00:22:47;;;;;;;9.93;6.13;;;;;;;19.80;43.41;102109.91;5089429;28;20050;-54
2022/05/03 00:25:15;;;;;;;11.07;6.70;;;;;;;19.78;44.02;102111.91;5088953;28;20416;-55
2022/05/03 00:27:43;;;;;;;11.35;6.22;;;;;;;19.79;43.94;102112.75;5090495;28;20424;-55
2022/05/03 00:30:10;;;;;;;9.57;5.85;;;;;;;19.77;44.02;102109.31;5088788;28;20047;-55
2022/05/03 00:32:37;;;;;;;9.02;5.85;;;;;;;19.77;43.43;102114.72;5090260;28;20054;-55
2022/05/03 00:35:06;;;;;;;9.57;6.40;;;;;;;19.73;44.04;102106.91;5088083;28;20398;-54
2022/05/03 00:37:33;;;;;;;9.07;6.18;;;;;;;19.74;44.04;102107.78;5090263;28;20419;-55
2022/05/03 00:40:00;;;;;;;11.27;5.95;;;;;;;19.71;44.17;102114.25;5087553;28;20054;-56
2022/05/03 00:42:40;;;;;;;9.63;6.00;;;;;;;19.72;43.57;102117.81;5091137;28;20051;-55
2022/05/03 00:45:45;;;;;;;8.63;5.93;;;;;;;19.68;44.44;102119.06;5080759;28;20052;-55
2022/05/03 00:48:33;;;;;;;8.90;5.68;;;;;;;19.66;44.34;102116.50;5086894;28;20044;-55
2022/05/03 00:51:08;;;;;;;8.77;5.80;;;;;;;19.67;43.65;102110.13;5086097;28;20122;-55
2022/05/03 00:53:59;;;;;;;8.75;5.30;;;;;;;19.64;44.32;102114.94;5086204;28;20040;-54
2022/05/03 00:57:01;;;;;;;8.52;5.07;;;;;;;19.63;43.89;102113.22;5087566;28;20380;-55
2022/05/03 00:59:31;;;;;;;10.20;5.72;;;;;;;19.64;43.97;102112.25;5087208;28;20311;-54
2022/05/03 01:02:07;;;;;;;9.90;5.68;;;;;;;19.62;44.46;102111.53;5086340;28;20054;-53
2022/05/03 01:04:56;;;;;;;9.18;5.55;;;;;;;19.60;44.05;102111.63;5087791;28;20058;-53
2022/05/03 01:07:33;;;;;;;8.18;5.45;;;;;;;19.59;44.01;102115.31;5084741;28;20426;-55
2022/05/03 01:10:10;;;;;;;8.23;5.53;;;;;;;19.57;44.41;102111.88;5088986;28;20056;-56
2022/05/03 01:12:52;;;;;;;9.48;6.10;;;;;;;19.57;44.30;102125.31;5085227;28;20048;-55
2022/05/03 01:15:23;;;;;;;7.85;5.20;;;;;;;19.57;44.06;102111.03;5087323;28;20070;-56
2022/05/03 01:18:30;;;;;;;7.68;5.38;;;;;;;19.54;44.18;102109.47;5088692;28;20128;-56
2022/05/03 01:21:17;;;;;;;10.38;5.13;;;;;;;19.54;43.99;102105.91;5089731;28;20475;-53
2022/05/03 01:24:04;;;;;;;7.97;5.22;;;;;;;19.53;43.99;102102.38;5084300;28;20070;-56
2022/05/03 01:26:52;;;;;;;7.97;5.13;;;;;;;19.54;44.31;102103.22;5087955;28;20064;-56
2022/05/03 01:29:28;;;;;;;8.27;5.80;;;;;;;19.54;44.15;102100.53;5090968;28;20138;-55
2022/05/03 01:32:01;;;;;;;9.38;5.65;;;;;;;19.52;44.23;102099.81;5091324;28;20043;-55
2022/05/03 01:34:29;;;;;;;7.78;5.65;;;;;;;19.53;44.31;102107.75;5089070;28;20036;-56
2022/05/03 01:37:11;;;;;;;8.55;5.40;;;;;;;19.51;44.53;102098.13;5087189;28;20058;-54
2022/05/03 01:39:58;;;;;;;7.05;5.20;;;;;;;19.51;44.37;102098.13;5085950;28;20044;-56
2022/05/03 01:42:49;;;;;;;6.65;4.80;;;;;;;19.52;44.28;102089.91;5086106;28;20040;-54
2022/05/03 01:45:36;;;;;;;8.38;4.90;;;;;;;19.56;44.71;102091.34;5086714;28;20465;-56
2022/05/03 01:48:24;;;;;;;7.28;5.28;;;;;;;19.57;43.95;102093.06;5088701;28;20811;-54
2022/05/03 01:51:19;;;;;;;7.32;4.63;;;;;;;19.56;43.95;102090.50;5089788;28;20040;-54
2022/05/03 01:53:50;;;;;;;8.55;5.30;;;;;;;19.56;44.65;102087.81;5086079;28;20040;-55
2022/05/03 01:56:47;;;;;;;7.53;4.82;;;;;;;19.55;44.19;102088.81;5084949;28;20176;-56
2022/05/03 01:59:23;;;;;;;8.55;4.88;;;;;;;19.57;44.51;102090.38;5082876;28;20040;-56
2022/05/03 02:01:55;;;;;;;8.48;4.57;;;;;;;19.56;44.49;102094.03;5084218;28;20490;-55
2022/05/03 02:04:56;;;;;;;6.45;4.65;;;;;;;19.60;44.83;102091.94;5085324;28;20123;-55
2022/05/03 02:07:47;;;;;;;7.82;5.10;;;;;;;19.63;44.01;102097.94;5087435;28;20135;-55
2022/05/03 02:10:30;;;;;;;9.02;4.97;;;;;;;19.65;43.78;102090.56;5086197;28;20048;-55
2022/05/03 02:13:02;;;;;;;6.65;4.38;;;;;;;19.66;43.66;102086.91;5085864;28;20066;-56
2022/05/03 02:15:37;;;;;;;7.88;4.50;;;;;;;19.67;44.10;102085.09;5085011;28;20131;-56
2022/05/03 02:18:09;;;;;;;7.18;3.80;;;;;;;19.67;43.90;102082.38;5085030;28;20169;-56
2022/05/03 02:20:45;;;;;;;6.47;4.20;;;;;;;19.67;44.10;102088.63;5087307;28;20102;-55
2022/05/03 02:23:15;;;;;;;6.32;4.55;;;;;;;19.69;44.10;102091.16;5085160;28;20052;-55
2022/05/03 02:26:13;;;;;;;6.25;4.65;;;;;;;19.72;43.89;102090.91;5088740;28;20453;-55
2022/05/03 02:28:55;;;;;;;5.93;4.13;;;;;;;19.75;44.10;102097.88;5086290;28;20127;-55
2022/05/03 02:31:36;;;;;;;6.35;4.32;;;;;;;19.74;44.30;102094.31;5083931;28;20059;-54
2022/05/03 02:34:48;;;;;;;7.57;4.72;;;;;;;19.75;44.33;102093.34;5082907;28;20340;-56
2022/05/03 02:37:17;;;;;;;6.57;4.30;;;;;;;19.77;43.75;102094.03;5071359;28;20445;-56
2022/05/03 02:39:54;;;;;;;5.80;4.22;;;;;;;19.77;44.42;102093.19;5084573;28;20036;-55
2022/05/03 02:42:21;;;;;;;5.97;3.95;;;;;;;19.78;44.00;102093.06;5085500;28;20071;-53
2022/05/03 02:44:48;;;;;;;6.32;4.65;;;;;;;19.78;44.18;102089.50;5085013;28;20381;-55
2022/05/03 02:47:23;;;;;;;7.55;4.32;;;;;;;19.78;43.63;102090.38;5085876;28;20082;-55
2022/05/03 02:50:04;;;;;;;6.20;4.38;;;;;;;19.79;43.74;102083.16;5082150;28;20040;-54
2022/05/03 02:53:02;;;;;;;6.30;4.05;;;;;;;19.78;43.91;102085.00;5085127;28;20564;-55
2022/05/03 02:55:35;;;;;;;7.05;4.28;;;;;;;19.78;43.62;102081.44;5084147;28;20044;-53
2022/05/03 02:58:04;;;;;;;6.22;4.55;;;;;;;19.77;44.24;102077.91;5083043;28;20135;-55
2022/05/03 03:03:44;;;;;;;5.80;4.10;;;;;;;19.79;44.36;102083.16;5088916;28;20346;-55
2022/05/03 03:06:22;;;;;;;5.95;4.13;;;;;;;19.80;44.27;102083.00;5083182;28;20048;-55
2022/05/03 03:08:54;;;;;;;6.32;4.10;;;;;;;19.81;44.20;102078.47;5082985;28;20055;-54
2022/05/03 03:11:28;;;;;;;5.57;4.45;;;;;;;19.81;44.00;102078.47;5084457;28;20046;-54
2022/05/03 03:14:10;;;;;;;5.35;3.95;;;;;;;19.80;44.29;102072.25;5084687;28;20040;-56
2022/05/03 03:16:43;;;;;;;6.40;3.83;;;;;;;19.81;43.95;102071.25;5087514;28;20361;-55
2022/05/03 03:19:32;;;;;;;5.15;3.78;;;;;;;19.81;44.00;102073.09;5085128;28;20135;-55
2022/05/03 03:22:01;;;;;;;6.05;4.03;;;;;;;19.81;44.06;102078.47;5086687;28;20051;-55
2022/05/03 03:24:31;;;;;;;6.03;3.63;;;;;;;19.81;44.19;102076.63;5085953;28;20143;-55
2022/05/03 03:27:02;;;;;;;6.22;3.72;;;;;;;19.82;44.18;102080.16;5087156;28;20132;-51
2022/05/03 03:29:31;;;;;;;5.88;3.85;;;;;;;19.82;43.98;102077.47;5080207;28;20049;-55
2022/05/03 03:32:00;;;;;;;6.78;3.85;;;;;;;19.81;44.03;102078.47;5085404;28;20112;-55
2022/05/03 03:34:28;;;;;;;7.82;4.55;;;;;;;19.81;44.29;102078.47;5085027;28;20074;-55
2022/05/03 03:37:01;;;;;;;5.78;3.40;;;;;;;19.80;43.96;102077.63;5084230;28;20051;-53
2022/05/03 03:39:30;;;;;;;4.57;3.53;;;;;;;19.79;44.33;102078.63;5084992;28;20048;-54
2022/05/03 03:42:07;;;;;;;5.63;3.90;;;;;;;19.79;44.48;102085.84;5085296;28;20072;-53
2022/05/03 03:44:34;;;;;;;5.47;3.60;;;;;;;19.79;44.22;102080.47;5085627;28;20036;-53
2022/05/03 03:47:02;;;;;;;6.15;3.63;;;;;;;19.79;43.82;102073.25;5084154;28;20048;-51
2022/05/03 03:49:35;;;;;;;5.78;3.88;;;;;;;19.79;44.33;102080.47;5086827;28;20114;-53
2022/05/03 03:52:02;;;;;;;5.15;3.80;;;;;;;19.78;44.48;102073.34;5087291;28;20393;-54
2022/05/03 03:54:28;;;;;;;5.40;3.72;;;;;;;19.77;43.86;102077.03;5083221;28;20052;-52
2022/05/03 03:56:56;;;;;;;4.72;3.55;;;;;;;19.76;44.36;102078.03;5084831;28;20376;-53
2022/05/03 03:59:24;;;;;;;5.72;3.63;;;;;;;19.74;44.04;102083.56;5084767;28;20083;-52
2022/05/03 04:01:51;;;;;;;5.63;3.70;;;;;;;19.75;43.84;102079.03;5081483;28;20047;-53
2022/05/03 04:04:18;;;;;;;6.03;3.85;;;;;;;19.74;43.87;102083.56;5085150;28;20051;-54
2022/05/03 04:06:44;;;;;;;4.80;3.65;;;;;;;19.74;44.10;102083.56;5083368;28;20052;-53
2022/05/03 04:09:11;;;;;;;5.82;3.45;;;;;;;19.73;44.29;102085.38;5085602;28;20051;-56
2022/05/03 04:11:45;;;;;;;6.18;3.70;;;;;;;19.73;44.62;102079.16;5084790;28;20131;-54
2022/05/03 04:14:12;;;;;;;6.57;3.58;;;;;;;19.73;44.40;102080.00;5065533;28;20135;-54
2022/05/03 04:16:40;;;;;;;8.98;3.92;;;;;;;19.71;44.64;102081.97;5086006;28;20148;-53
2022/05/03 04:19:07;;;;;;;6.15;4.07;;;;;;;19.71;44.06;102087.38;5092125;28;20048;-53
2022/05/03 04:21:34;;;;;;;8.80;4.32;;;;;;;19.70;44.12;102074.06;5089434;28;20043;-53
2022/05/03 04:24:00;;;;;;;12.07;4.75;;;;;;;19.69;43.98;102080.41;5086690;28;20040;-53
2022/05/03 04:26:27;;;;;;;6.85;4.28;;;;;;;19.66;44.51;102076.16;5086468;28;20791;-55
2022/05/03 04:28:58;;;;;;;8.40;4.03;;;;;;;19.65;44.07;102071.75;5094066;28;20120;-56
2022/05/03 04:31:29;;;;;;;6.13;4.18;;;;;;;19.63;44.30;102073.75;5087583;28;20036;-56
2022/05/03 04:33:56;;;;;;;10.00;4.90;;;;;;;19.62;44.60;102071.19;5091667;28;20094;-56
2022/05/03 04:36:25;;;;;;;7.43;4.53;;;;;;;19.59;44.20;102074.97;5090200;28;20429;-56
2022/05/03 04:38:52;;;;;;;9.73;5.20;;;;;;;19.58;44.46;102073.25;5090884;28;20048;-56
2022/05/03 04:41:23;;;;;;;9.13;5.20;;;;;;;19.56;44.02;102074.38;5091220;28;20040;-56
2022/05/03 04:43:50;;;;;;;8.65;5.40;;;;;;;19.54;44.53;102073.63;5092903;28;20134;-56
2022/05/03 04:46:17;;;;;;;8.20;5.75;;;;;;;19.53;44.67;102072.78;5090798;28;20166;-56
2022/05/03 04:48:44;;;;;;;11.40;6.28;;;;;;;19.52;44.29;102071.09;5088019;28;20044;-56
2022/05/03 04:51:19;;;;;;;10.02;6.35;;;;;;;19.52;44.93;102073.78;5092775;28;20040;-56
2022/05/03 04:53:46;;;;;;;10.30;6.00;;;;;;;19.53;44.64;102086.22;5089673;28;20036;-56
2022/05/03 04:56:21;;;;;;;11.07;6.47;;;;;;;19.54;44.53;102077.22;5091949;28;20044;-56
2022/05/03 04:58:49;;;;;;;10.27;6.63;;;;;;;19.57;44.65;102093.06;5091125;28;20046;-55
2022/05/03 05:01:17;;;;;;;13.38;6.68;;;;;;;19.58;44.23;102092.09;5091564;28;20123;-57
2022/05/03 05:03:44;;;;;;;11.73;6.75;;;;;;;19.59;44.37;102088.41;5089700;28;20052;-57
2022/05/03 05:06:11;;;;;;;12.88;7.30;;;;;;;19.59;44.59;102085.72;5088654;28;20122;-57
2022/05/03 05:08:39;;;;;;;11.82;6.57;;;;;;;19.62;44.00;102090.88;5090903;28;20143;-55
2022/05/03 05:11:05;;;;;;;11.35;6.53;;;;;;;19.62;44.41;102087.34;5089200;28;20046;-56
2022/05/03 05:13:32;;;;;;;12.77;6.55;;;;;;;19.63;44.10;102091.72;5092716;28;20040;-53
2022/05/03 05:15:59;;;;;;;10.98;6.90;;;;;;;19.64;44.32;102096.94;5091880;28;20044;-54
2022/05/03 05:18:27;;;;;;;11.52;6.93;;;;;;;19.64;43.76;102105.00;5090354;28;20109;-55
2022/05/03 05:20:54;;;;;;;12.60;6.85;;;;;;;19.65;43.51;102098.66;5089688;28;20167;-54
2022/05/03 05:23:26;;;;;;;10.80;7.35;;;;;;;19.66;44.04;102099.53;5088529;28;20047;-53
2022/05/03 05:25:54;;;;;;;10.38;6.80;;;;;;;19.66;43.58;102097.69;5088236;28;20135;-54
2022/05/03 05:28:23;;;;;;;11.30;7.13;;;;;;;19.66;43.62;102096.84;5082481;28;20143;-54
2022/05/03 05:30:51;;;;;;;11.70;7.32;;;;;;;19.64;44.12;102094.25;5087888;28;20124;-55
2022/05/03 05:33:20;;;;;;;12.35;7.35;;;;;;;19.64;43.68;102101.47;5083978;28;20047;-54
2022/05/03 05:35:48;;;;;;;13.13;8.32;;;;;;;19.62;44.22;102100.78;5084506;28;20048;-55
2022/05/03 05:38:16;;;;;;;15.50;7.40;;;;;;;19.61;43.86;102099.91;5087950;28;20079;-56
2022/05/03 05:40:44;;;;;;;10.70;7.13;;;;;;;19.60;44.09;102103.56;5087709;28;20044;-53
2022/05/03 05:43:10;;;;;;;11.93;7.88;;;;;;;19.59;43.91;102099.16;5085518;28;20052;-55
2022/05/03 05:45:40;;;;;;;13.15;7.90;;;;;;;19.56;44.26;102096.72;5088275;28;20077;-54
2022/05/03 05:48:08;;;;;;;11.30;7.18;;;;;;;19.56;44.16;102096.72;5071263;28;20128;-54
2022/05/03 05:50:36;;;;;;;11.23;7.10;;;;;;;19.56;43.94;102091.34;5085773;28;20514;-55
2022/05/03 05:55:52;;;;;;;10.00;6.80;;;;;;;19.57;43.94;102101.13;5089088;28;20079;-52
2022/05/03 05:58:19;;;;;;;11.35;7.72;;;;;;;19.58;44.38;102110.91;5087782;28;20055;-54
2022/05/03 06:00:46;;;;;;;11.95;7.43;;;;;;;19.56;44.56;102101.25;5082892;28;20068;-53
2022/05/03 06:03:14;;;;;;;11.07;7.07;;;;;;;19.55;43.94;102113.88;5091303;28;20050;-55
2022/05/03 06:05:41;;;;;;;11.43;7.57;;;;;;;19.57;44.56;102102.97;5086637;28;20054;-54
2022/05/03 06:08:08;;;;;;;10.60;6.00;;;;;;;19.56;44.43;102107.50;5087685;28;20368;-56
2022/05/03 06:10:34;;;;;;;10.35;6.68;;;;;;;19.56;44.26;102110.19;5085622;28;20115;-55
2022/05/03 06:13:02;;;;;;;12.48;7.25;;;;;;;19.59;44.42;102112.63;5088102;28;20040;-54
2022/05/03 06:15:29;;;;;;;11.52;7.13;;;;;;;19.56;44.02;102112.88;5090165;28;20097;-55
2022/05/03 06:17:56;;;;;;;11.20;7.55;;;;;;;19.57;44.22;102114.56;5089143;28;20059;-56
2022/05/03 06:20:23;;;;;;;11.00;7.18;;;;;;;19.60;44.11;102108.09;5087198;28;20424;-54
2022/05/03 06:22:49;;;;;;;10.40;6.95;;;;;;;19.63;44.21;102110.53;5087077;28;20123;-55
2022/05/03 06:25:16;;;;;;;10.23;6.78;;;;;;;19.66;43.96;102108.44;5088169;28;20132;-55
2022/05/03 06:27:43;;;;;;;11.88;6.97;;;;;;;19.68;44.28;102109.16;5088945;28;20131;-54
2022/05/03 06:30:10;;;;;;;10.65;6.53;;;;;;;19.70;43.91;102114.41;5089289;28;20407;-55
2022/05/03 06:32:37;;;;;;;11.00;6.93;;;;;;;19.72;43.68;102110.59;5086524;28;20051;-55
2022/05/03 06:35:04;;;;;;;9.02;6.22;;;;;;;19.73;43.78;102117.66;5087583;28;20060;-56
2022/05/03 06:37:36;;;;;;;8.07;5.47;;;;;;;19.76;44.19;102107.63;5088102;28;20040;-56
2022/05/03 06:40:06;;;;;;;9.88;6.35;;;;;;;19.78;44.07;102111.91;5089424;28;20079;-56
2022/05/03 06:42:37;;;;;;;10.80;6.20;;;;;;;19.79;44.07;102113.59;5069004;28;20113;-56
2022/05/03 06:45:05;;;;;;;12.00;6.20;;;;;;;19.79;43.69;102116.28;5089750;28;20126;-56
2022/05/03 06:47:32;;;;;;;9.65;6.30;;;;;;;19.80;43.63;102122.53;5087055;28;20134;-54
2022/05/03 06:49:58;;;;;;;11.68;6.47;;;;;;;19.81;43.60;102129.59;5088838;28;20044;-56
2022/05/03 06:52:25;;;;;;;9.30;6.00;;;;;;;19.83;44.38;102127.63;5088937;28;20394;-56
2022/05/03 06:54:53;;;;;;;9.95;6.50;;;;;;;19.82;43.84;102132.16;5089076;28;20409;-57
2022/05/03 06:57:19;;;;;;;13.93;7.60;;;;;;;19.82;43.83;102134.88;5088459;28;20131;-55
2022/05/03 06:59:46;;;;;;;12.05;6.75;;;;;;;19.82;44.14;102134.88;5088085;28;20042;-56
2022/05/03 07:02:13;;;;;;;11.30;6.78;;;;;;;19.83;43.78;102133.03;5089511;28;20052;-55
2022/05/03 07:04:43;;;;;;;10.32;6.68;;;;;;;19.83;44.45;102136.56;5088588;28;20054;-57
2022/05/03 07:07:11;;;;;;;14.70;6.85;;;;;;;19.84;44.31;102134.72;5089643;28;20068;-56
2022/05/03 07:09:37;;;;;;;12.13;6.68;;;;;;;19.84;44.48;102130.19;5087321;28;20048;-57
2022/05/03 07:12:04;;;;;;;12.13;7.07;;;;;;;19.86;44.28;102140.78;5086829;28;20382;-57
2022/05/03 07:14:31;;;;;;;10.93;6.65;;;;;;;19.86;44.20;102130.91;5088572;28;20046;-56
2022/05/03 07:16:57;;;;;;;9.23;6.22;;;;;;;19.87;44.35;102132.63;5088950;28;20487;-57
2022/05/03 07:24:54;;;;;;;10.05;6.60;;;;;;;19.91;44.26;102136.75;5086026;28;20123;-56
2022/05/03 07:27:21;;;;;;;11.50;6.15;;;;;;;19.92;43.75;102132.22;5085089;28;20155;-56
2022/05/03 07:29:47;;;;;;;10.07;6.22;;;;;;;19.94;44.51;102138.31;5087159;28;20127;-56
2022/05/03 07:32:14;;;;;;;12.65;7.22;;;;;;;19.94;43.89;102141.00;5086641;28;20143;-56
2022/05/03 07:34:41;;;;;;;11.88;6.47;;;;;;;19.95;43.80;102134.63;5087737;28;20570;-55
2022/05/03 07:37:09;;;;;;;10.88;7.15;;;;;;;19.96;44.14;102131.78;5088776;28;20336;-55
2022/05/03 07:39:35;;;;;;;10.70;6.35;;;;;;;19.98;44.10;102139.75;5086125;28;20205;-54
2022/05/03 07:42:02;;;;;;;15.95;6.85;;;;;;;20.00;43.77;102135.06;5088524;28;20093;-55
2022/05/03 07:44:28;;;;;;;11.10;6.57;;;;;;;20.01;44.17;102139.47;5088178;28;20195;-55
2022/05/03 07:46:57;;;;;;;11.60;6.70;;;;;;;20.03;44.21;102134.81;5088700;28;20123;-56
2022/05/03 07:49:23;;;;;;;10.68;6.40;;;;;;;20.05;43.86;102132.81;5084406;28;20138;-55
2022/05/03 07:51:50;;;;;;;10.60;6.85;;;;;;;20.06;44.42;102125.59;5085342;28;20044;-55
2022/05/03 07:54:16;;;;;;;11.25;6.90;;;;;;;20.08;44.21;102131.72;5091287;28;20054;-55
2022/05/03 07:56:43;;;;;;;9.82;6.28;;;;;;;20.07;43.72;102128.16;5092885;28;20330;-56
2022/05/03 07:59:10;;;;;;;12.30;6.70;;;;;;;20.09;44.49;102134.25;5090896;28;20047;-56
2022/05/03 08:01:39;;;;;;;9.10;6.15;;;;;;;20.11;44.26;102136.81;5086834;28;20383;-56
2022/05/03 08:04:07;;;;;;;9.35;6.75;;;;;;;20.12;43.80;102138.53;5090938;28;20044;-56
2022/05/03 08:06:35;;;;;;;9.27;6.18;;;;;;;20.13;44.35;102137.53;5088985;28;20071;-56
2022/05/03 08:09:03;;;;;;;9.85;6.68;;;;;;;20.12;43.89;102139.38;5090840;28;20171;-56
2022/05/03 08:11:30;;;;;;;10.85;6.70;;;;;;;20.13;43.58;102140.22;5092519;28;20040;-56
2022/05/03 08:13:56;;;;;;;11.38;7.45;;;;;;;20.13;43.63;102146.44;5086699;28;20079;-55
2022/05/03 08:16:23;;;;;;;10.77;6.57;;;;;;;20.14;44.31;102141.91;5091497;28;20135;-56
2022/05/03 08:18:50;;;;;;;10.10;6.57;;;;;;;20.14;43.91;102142.78;5093058;28;20079;-55
2022/05/03 08:21:17;;;;;;;9.63;6.70;;;;;;;20.16;43.66;102142.66;5090673;28;20080;-55
2022/05/03 08:23:43;;;;;;;17.10;6.90;;;;;;;20.16;44.18;102146.19;5090462;28;20079;-56
2022/05/03 08:26:11;;;;;;;19.15;8.32;;;;;;;20.17;43.78;102145.19;5091071;28;20054;-55
2022/05/03 08:28:38;;;;;;;24.15;7.70;;;;;;;20.18;44.37;102149.59;5092609;28;20837;-56
2022/05/03 08:31:04;;;;;;;17.02;8.25;;;;;;;20.19;43.81;102150.47;5089171;28;20058;-56
2022/05/03 08:33:31;;;;;;;17.67;8.32;;;;;;;20.19;43.65;102151.31;5089909;28;20171;-56
2022/05/03 08:35:57;;;;;;;24.00;10.15;;;;;;;20.22;44.00;102155.53;5090980;28;20054;-56
2022/05/03 08:43:58;;;;;;;23.65;10.68;;;;;;;20.20;43.52;102153.00;5086843;28;20409;-56
2022/05/03 08:46:25;;;;;;;27.58;12.05;;;;;;;20.19;44.11;102145.06;5086835;28;20132;-56
2022/05/03 08:48:59;;;;;;;25.35;11.80;;;;;;;20.19;44.18;102153.16;5090658;28;20048;-56
2022/05/03 08:51:28;;;;;;;23.73;12.05;;;;;;;20.20;43.74;102154.84;5089127;28;20122;-56
2022/05/03 08:53:56;;;;;;;24.42;12.30;;;;;;;20.18;44.10;102157.69;5091403;28;20075;-56
2022/05/03 08:56:22;;;;;;;23.75;11.73;;;;;;;20.18;43.80;102148.72;5088375;28;20050;-56
2022/05/03 08:58:49;;;;;;;24.95;12.15;;;;;;;20.18;44.37;102157.69;5091208;28;20127;-56
2022/05/03 09:01:15;;;;;;;23.60;12.75;;;;;;;20.19;43.80;102162.06;5091815;28;20044;-56
2022/05/03 09:03:42;;;;;;;22.52;11.93;;;;;;;20.19;43.52;102155.84;5091076;28;20044;-56
2022/05/03 09:06:08;;;;;;;24.10;11.88;;;;;;;20.19;44.29;102159.38;5091279;28;21173;-56
2022/05/03 09:08:35;;;;;;;25.83;12.30;;;;;;;20.20;44.18;102155.69;5091291;28;20127;-56
2022/05/03 09:11:15;;;;;;;27.02;12.32;;;;;;;20.22;44.38;102155.53;5090091;28;20442;-56
2022/05/03 09:13:43;;;;;;;27.75;13.07;;;;;;;20.25;43.99;102159.81;5089178;28;20359;-56
2022/05/03 09:16:16;;;;;;;23.60;12.43;;;;;;;20.25;43.86;102157.13;5089230;28;20327;-56
2022/05/03 09:18:44;;;;;;;23.43;12.47;;;;;;;20.26;44.07;102166.91;5091602;28;20071;-57
2022/05/03 09:24:12;;;;;;;24.88;12.15;;;;;;;20.27;44.55;102164.09;5082727;28;20480;-56
2022/05/03 09:26:39;;;;;;;24.23;13.02;;;;;;;20.28;44.90;102154.16;5086261;28;20147;-56
2022/05/03 09:29:08;;;;;;;22.90;12.23;;;;;;;20.28;45.15;102156.84;5086904;28;20076;-56
2022/05/03 09:31:39;;;;;;;26.70;12.98;;;;;;;20.30;45.11;102162.94;5073298;28;20068;-56
2022/05/03 09:34:18;;;;;;;25.70;11.95;;;;;;;20.30;45.41;102158.44;5085984;28;20110;-56
2022/05/03 09:36:49;;;;;;;26.90;12.07;;;;;;;20.31;45.02;102156.59;5090472;28;20043;-56
2022/05/03 09:39:41;;;;;;;19.02;11.45;;;;;;;20.31;45.34;102156.59;5090656;28;20048;-56
2022/05/03 09:42:19;;;;;;;18.25;11.48;;;;;;;20.30;45.42;102155.75;5088154;28;20062;-56
2022/05/03 09:45:03;;;;;;;25.38;12.25;;;;;;;20.32;45.17;102147.53;5089499;28;20050;-56
2022/05/03 09:47:46;;;;;;;21.50;10.73;;;;;;;20.33;45.37;102151.91;5089172;28;20130;-56
2022/05/03 09:50:25;;;;;;;23.80;11.60;;;;;;;20.33;44.91;102152.75;5089381;28;20071;-56
2022/05/03 09:52:52;;;;;;;21.13;10.55;;;;;;;20.35;45.41;102148.09;5087235;28;20046;-56
2022/05/03 09:55:33;;;;;;;19.42;10.93;;;;;;;20.38;45.27;102145.13;5090231;28;20131;-56
2022/05/03 09:58:02;;;;;;;21.05;11.45;;;;;;;20.40;45.44;102148.53;5089403;28;20079;-56
2022/05/03 10:00:31;;;;;;;20.58;10.63;;;;;;;20.40;44.78;102145.84;5090750;28;20043;-56
2022/05/03 10:02:59;;;;;;;24.55;10.57;;;;;;;20.43;45.21;102150.97;5088112;28;20043;-56
2022/05/03 10:05:26;;;;;;;18.30;10.52;;;;;;;20.44;44.83;102151.81;5089222;28;20048;-56
2022/05/03 10:07:54;;;;;;;19.75;10.35;;;;;;;20.46;45.26;102145.31;5090168;28;20143;-57
2022/05/03 10:10:22;;;;;;;16.80;10.10;;;;;;;20.48;45.42;102144.31;5083313;28;20099;-57
2022/05/03 10:12:50;;;;;;;21.33;10.20;;;;;;;20.52;45.51;102149.31;5085437;28;20040;-57
2022/05/03 10:21:12;;;;;;;17.30;9.15;;;;;;;20.60;45.44;102154.84;5088814;28;20097;-55
2022/05/03 10:23:39;;;;;;;19.90;9.32;;;;;;;20.59;44.86;102145.06;5083873;28;20550;-56
2022/05/03 10:26:09;;;;;;;16.55;8.73;;;;;;;20.61;44.94;102142.22;5088987;28;20502;-56
2022/05/03 10:29:07;;;;;;;16.02;8.30;;;;;;;20.61;44.97;102139.53;5089283;28;20047;-56
2022/05/03 10:31:53;;;;;;;17.65;8.90;;;;;;;20.61;45.44;102142.22;5082649;28;20049;-56
2022/05/03 10:34:42;;;;;;;18.88;9.35;;;;;;;20.61;44.97;102135.00;5086271;28;20043;-57
2022/05/03 10:37:13;;;;;;;16.30;9.07;;;;;;;20.63;45.05;102138.41;5084092;28;20109;-55
2022/05/03 10:39:46;;;;;;;15.50;8.88;;;;;;;20.64;45.29;102134.72;5088242;28;20118;-56
2022/05/03 10:42:14;;;;;;;;;;;;;;;20.66;45.52;102134.56;5089588;28;20068;-57
2022/05/03 10:44:43;;;;;;;16.27;9.18;;;;;;;20.68;44.75;102138.00;5088092;28;19926;-56
2022/05/03 10:47:12;;;;;;;17.23;8.93;;;;;;;20.68;44.82;102138.84;5088281;28;20044;-57
2022/05/03 10:50:11;;;;;;;13.60;7.82;;;;;;;20.66;45.39;102135.44;5087089;28;20125;-56
2022/05/03 10:52:39;;;;;;;15.30;7.95;;;;;;;20.67;45.27;102137.16;5086220;28;20139;-56
2022/05/03 10:55:11;;;;;;;17.13;8.43;;;;;;;20.67;44.93;102142.53;5087755;28;20131;-56
2022/05/03 10:58:15;;;;;;;13.88;8.45;;;;;;;20.67;44.86;102137.16;5086295;28;20159;-56
2022/05/03 11:01:14;;;;;;;14.77;7.88;;;;;;;20.67;44.73;102137.16;5088979;28;20389;-56
2022/05/03 11:03:47;;;;;;;13.85;8.35;;;;;;;20.68;45.46;102133.47;5088934;28;20062;-56
2022/05/03 11:06:20;;;;;;;15.20;8.60;;;;;;;20.68;44.91;102135.31;5083952;28;20089;-56
2022/05/03 11:09:05;;;;;;;14.25;8.15;;;;;;;20.67;44.96;102137.16;5088415;28;20816;-56
2022/05/03 11:11:43;;;;;;;14.35;7.95;;;;;;;20.68;45.48;102138.00;5089413;28;20036;-57
2022/05/03 11:14:18;;;;;;;14.05;7.25;;;;;;;20.68;45.08;102138.00;5088832;28;20488;-56
2022/05/03 11:17:03;;;;;;;13.43;7.93;;;;;;;20.68;45.29;102130.75;5087558;28;20042;-55
2022/05/03 11:19:34;;;;;;;12.93;7.25;;;;;;;20.72;45.59;102136.72;5087478;28;20072;-56
2022/05/03 11:22:02;;;;;;;12.55;7.38;;;;;;;20.74;44.89;102139.25;5089437;28;20044;-56
2022/05/03 11:24:30;;;;;;;13.25;7.95;;;;;;;20.76;45.42;102138.16;5084950;28;20140;-57
2022/05/03 11:26:59;;;;;;;15.88;8.00;;;;;;;20.77;44.87;102137.16;5086935;28;20044;-56
2022/05/03 11:29:29;;;;;;;13.13;6.97;;;;;;;20.80;44.92;102136.03;5091854;28;20035;-56
2022/05/03 11:31:59;;;;;;;12.63;7.20;;;;;;;20.81;45.24;102137.72;5090522;28;20048;-56
2022/05/03 11:34:26;;;;;;;10.45;6.75;;;;;;;20.82;45.21;102129.47;5092770;28;20052;-55
2022/05/03 11:36:53;;;;;;;14.13;7.03;;;;;;;20.83;45.53;102131.22;5094609;28;20044;-56
2022/05/03 11:39:22;;;;;;;13.32;7.05;;;;;;;20.83;44.84;102125.81;5091254;28;20155;-56
2022/05/03 11:41:49;;;;;;;10.93;7.07;;;;;;;20.84;44.68;102132.06;5092774;28;20070;-56
2022/05/03 11:44:16;;;;;;;10.80;6.75;;;;;;;20.84;45.08;102127.50;5090793;28;20044;-56
2022/05/03 11:46:45;;;;;;;11.48;6.68;;;;;;;20.85;45.38;102133.75;5091696;28;20040;-56
2022/05/03 11:49:14;;;;;;;11.30;6.45;;;;;;;20.85;45.23;102131.06;5093421;28;20040;-57
2022/05/03 11:57:42;;;;;;;8.73;5.60;;;;;;;20.87;45.21;102123.69;5092429;28;20323;-56
2022/05/03 12:00:11;;;;;;;7.72;5.65;;;;;;;20.88;45.31;102122.69;5091321;28;20076;-56
2022/05/03 12:02:41;;;;;;;10.18;6.28;;;;;;;20.87;45.10;102116.47;5091514;28;20038;-57
2022/05/03 12:05:10;;;;;;;8.75;5.40;;;;;;;20.88;45.30;102117.31;5089487;28;20046;-56
2022/05/03 12:07:37;;;;;;;7.93;5.28;;;;;;;20.89;45.22;102114.47;5092536;28;20075;-57
2022/05/03 12:10:19;;;;;;;7.75;5.15;;;;;;;20.90;45.34;102115.31;5090598;28;20055;-57
2022/05/03 12:13:13;;;;;;;7.82;5.15;;;;;;;20.90;44.96;102108.09;5092652;28;20039;-56
2022/05/03 12:15:49;;;;;;;9.23;5.07;;;;;;;20.91;45.36;102115.19;5091052;28;20044;-56